Time;durP1;ratioP1;P1;durP2;ratioP2;P2;SDS_P1;SDS_P2;PMS_P1;PMS_P2;Temp;Humidity;BMP_temperature;BMP_pressure;BME280_temperature;BME280_humidity;BME280_pressure;Samples;Min_cycle;Max_cycle;Signal;HPM_P1;HPM_P2
2021/05/15 04:55:42;;;;;;;1.35;0.50;;;11.30;96.10;;;;;;5901875;23;20370;-80
2021/05/15 04:58:09;;;;;;;1.83;0.73;;;11.30;96.00;;;;;;4956048;28;20101;-79
2021/05/15 05:00:35;;;;;;;2.22;0.85;;;11.40;95.90;;;;;;4955154;29;20051;-78
2021/05/15 05:03:02;;;;;;;1.85;0.68;;;11.30;95.80;;;;;;4968333;28;20050;-79
2021/05/15 05:05:29;;;;;;;1.77;0.77;;;11.50;95.70;;;;;;4969605;23;20141;-81
2021/05/15 05:07:56;;;;;;;2.00;0.57;;;11.50;95.60;;;;;;4938453;29;20564;-80
2021/05/15 05:10:22;;;;;;;3.13;0.80;;;11.50;95.50;;;;;;4940752;29;20121;-80
2021/05/15 05:12:50;;;;;;;2.03;0.70;;;11.60;95.40;;;;;;4951921;29;20134;-81
2021/05/15 05:15:17;;;;;;;1.63;0.70;;;11.70;95.30;;;;;;4936344;29;20135;-79
2021/05/15 05:17:43;;;;;;;1.33;0.70;;;11.70;95.20;;;;;;4936582;29;20055;-80
2021/05/15 05:20:11;;;;;;;1.65;0.60;;;11.80;95.10;;;;;;4948013;29;20131;-79
2021/05/15 05:22:38;;;;;;;1.45;0.60;;;11.80;95.10;;;;;;4966525;28;20047;-80
2021/05/15 05:25:07;;;;;;;1.73;0.70;;;11.90;95.00;;;;;;4952049;29;20117;-79
2021/05/15 05:27:33;;;;;;;2.25;0.60;;;12.00;94.90;;;;;;4935784;29;20040;-79
2021/05/15 05:30:01;;;;;;;2.40;0.70;;;12.00;94.20;;;;;;4931940;29;20098;-80
2021/05/15 05:32:27;;;;;;;2.13;0.60;;;12.10;93.90;;;;;;4937411;29;20139;-79
2021/05/15 05:34:54;;;;;;;1.33;0.60;;;12.10;94.00;;;;;;4942453;29;20575;-79
2021/05/15 05:37:22;;;;;;;1.33;0.60;;;12.10;94.00;;;;;;4934545;28;20134;-80
2021/05/15 05:39:50;;;;;;;1.65;0.70;;;12.20;94.00;;;;;;4937076;29;20485;-80
2021/05/15 05:42:17;;;;;;;2.28;0.70;;;12.20;94.00;;;;;;4934781;29;20622;-81
2021/05/15 05:44:44;;;;;;;1.70;0.60;;;12.30;93.90;;;;;;4937094;29;20130;-81
2021/05/15 05:47:12;;;;;;;1.70;0.60;;;12.30;93.40;;;;;;4944516;29;20501;-79
2021/05/15 05:49:39;;;;;;;1.27;0.60;;;12.40;93.20;;;;;;4948424;29;20102;-80
2021/05/15 05:52:06;;;;;;;1.65;0.52;;;12.40;93.60;;;;;;4946575;29;20051;-80
2021/05/15 05:54:32;;;;;;;1.67;0.70;;;12.40;93.50;;;;;;4940678;28;20055;-81
2021/05/15 05:56:59;;;;;;;1.83;0.70;;;12.50;93.70;;;;;;4945452;29;20135;-78
2021/05/15 05:59:26;;;;;;;1.65;0.77;;;12.50;93.90;;;;;;4943502;28;20105;-80
2021/05/15 06:01:52;;;;;;;2.00;0.70;;;12.60;93.80;;;;;;4945866;28;20055;-78
2021/05/15 06:04:20;;;;;;;2.13;0.70;;;12.60;93.80;;;;;;4935825;29;20134;-79
2021/05/15 06:06:46;;;;;;;1.42;0.60;;;12.60;93.90;;;;;;4936203;29;20080;-79
2021/05/15 06:09:17;;;;;;;1.50;0.70;;;12.70;93.90;;;;;;4953227;29;20090;-80
2021/05/15 06:11:43;;;;;;;1.80;0.70;;;12.70;93.80;;;;;;4943735;29;20083;-79
2021/05/15 06:14:10;;;;;;;2.83;0.90;;;12.80;93.90;;;;;;4951499;29;20079;-79
2021/05/15 06:16:37;;;;;;;3.05;0.90;;;12.80;94.20;;;;;;4942386;29;20078;-79
2021/05/15 06:19:04;;;;;;;2.40;0.90;;;12.90;94.30;;;;;;4946824;28;20086;-79
2021/05/15 06:21:31;;;;;;;2.75;0.90;;;13.00;94.50;;;;;;4940680;28;20152;-79
2021/05/15 06:24:00;;;;;;;2.17;0.88;;;13.10;94.50;;;;;;4935210;28;20138;-79
2021/05/15 06:26:27;;;;;;;3.22;0.80;;;13.20;94.30;;;;;;4941841;29;20520;-78
2021/05/15 06:28:54;;;;;;;1.85;0.70;;;13.20;94.20;;;;;;4946392;29;20484;-78
2021/05/15 06:31:20;;;;;;;2.10;0.80;;;13.30;93.70;;;;;;4931155;29;20048;-79
2021/05/15 06:33:47;;;;;;;1.63;0.70;;;13.40;93.60;;;;;;4938339;29;20086;-78
2021/05/15 06:36:14;;;;;;;1.40;0.70;;;13.40;93.50;;;;;;4942634;29;20413;-78
2021/05/15 06:38:42;;;;;;;2.13;0.93;;;13.50;93.40;;;;;;4939612;29;20074;-77
2021/05/15 06:41:09;;;;;;;1.38;0.60;;;13.60;93.10;;;;;;4946191;29;20126;-77
2021/05/15 06:43:35;;;;;;;1.10;0.60;;;13.60;92.30;;;;;;4937107;29;20184;-78
2021/05/15 06:46:02;;;;;;;1.98;0.70;;;13.60;92.40;;;;;;4934848;29;20078;-79
2021/05/15 06:48:29;;;;;;;1.45;0.60;;;13.70;92.70;;;;;;4937586;29;20139;-78
2021/05/15 06:50:55;;;;;;;1.75;0.60;;;13.90;92.60;;;;;;4936144;29;20130;-79
2021/05/15 06:53:22;;;;;;;1.90;0.60;;;13.90;92.30;;;;;;4951187;28;20047;-78
2021/05/15 06:55:49;;;;;;;1.67;0.60;;;14.00;92.10;;;;;;4937781;28;20083;-79
2021/05/15 06:58:16;;;;;;;2.03;0.65;;;14.10;91.60;;;;;;4949278;29;20176;-79
2021/05/15 07:00:43;;;;;;;2.00;0.70;;;14.20;90.70;;;;;;4934832;29;20051;-79
2021/05/15 07:03:09;;;;;;;2.83;0.68;;;14.20;88.10;;;;;;4937767;29;20563;-83
2021/05/15 07:05:36;;;;;;;2.45;0.60;;;14.20;88.60;;;;;;4938726;29;20497;-83
2021/05/15 07:08:04;;;;;;;2.60;0.60;;;14.20;88.70;;;;;;4938812;29;20130;-82
2021/05/15 07:10:30;;;;;;;1.30;0.57;;;14.20;87.90;;;;;;4939081;29;20075;-82
2021/05/15 07:12:58;;;;;;;1.23;0.43;;;14.10;87.70;;;;;;4938883;29;20445;-82
2021/05/15 07:15:25;;;;;;;0.52;0.30;;;14.20;89.10;;;;;;4932288;29;20134;-83
2021/05/15 07:17:52;;;;;;;1.20;0.50;;;14.20;89.10;;;;;;4937559;29;20463;-82
2021/05/15 07:20:18;;;;;;;1.45;0.50;;;14.30;88.90;;;;;;4947628;28;20482;-82
2021/05/15 07:22:45;;;;;;;2.47;0.50;;;14.30;88.40;;;;;;4949626;29;20079;-82
2021/05/15 07:25:13;;;;;;;1.60;0.50;;;14.40;88.40;;;;;;4938881;29;20055;-82
2021/05/15 07:27:40;;;;;;;1.90;0.70;;;14.30;87.80;;;;;;4952151;29;20058;-83
2021/05/15 07:30:09;;;;;;;1.15;0.50;;;14.40;86.60;;;;;;4949089;29;20058;-82
2021/05/15 07:32:36;;;;;;;2.70;0.65;;;14.30;87.20;;;;;;4945500;28;20048;-82
2021/05/15 07:35:03;;;;;;;2.45;0.60;;;14.40;87.50;;;;;;4938968;29;20150;-82
2021/05/15 07:37:29;;;;;;;1.50;0.50;;;14.50;87.60;;;;;;4938399;29;20044;-82
2021/05/15 07:39:56;;;;;;;2.92;0.70;;;14.60;87.30;;;;;;4942926;29;20055;-83
2021/05/15 07:42:23;;;;;;;1.40;0.60;;;14.60;87.70;;;;;;4943989;29;20540;-83
2021/05/15 07:44:50;;;;;;;1.42;0.63;;;14.70;87.20;;;;;;4947318;29;20055;-83
2021/05/15 07:47:17;;;;;;;2.13;0.60;;;14.90;85.70;;;;;;4937525;29;20047;-82
2021/05/15 07:49:44;;;;;;;2.45;0.90;;;14.70;85.00;;;;;;4937940;29;20540;-81
2021/05/15 07:52:10;;;;;;;1.98;0.73;;;14.70;85.10;;;;;;4922492;29;20083;-82
2021/05/15 07:54:37;;;;;;;1.88;0.60;;;14.70;86.00;;;;;;4938199;29;20090;-82
2021/05/15 07:57:05;;;;;;;3.35;0.75;;;14.70;85.70;;;;;;4937929;29;20064;-82
2021/05/15 07:59:31;;;;;;;1.73;0.60;;;14.80;84.80;;;;;;4937892;29;20099;-83
2021/05/15 08:01:58;;;;;;;1.88;0.65;;;14.70;84.30;;;;;;4938063;29;20466;-83
2021/05/15 08:04:26;;;;;;;2.05;0.70;;;14.70;82.80;;;;;;4938959;29;20048;-84
2021/05/15 08:06:52;;;;;;;3.53;0.60;;;14.60;83.20;;;;;;4937909;29;20091;-85
2021/05/15 08:09:19;;;;;;;2.22;0.60;;;14.70;83.50;;;;;;4938037;29;20501;-81
2021/05/15 08:11:46;;;;;;;2.10;0.60;;;14.70;84.60;;;;;;4945641;29;20055;-85
2021/05/15 08:14:12;;;;;;;1.02;0.40;;;14.70;84.80;;;;;;4936567;29;20143;-85
2021/05/15 08:16:39;;;;;;;1.23;0.50;;;14.80;84.40;;;;;;4937824;29;20126;-86
2021/05/15 08:19:06;;;;;;;2.40;0.68;;;14.90;84.20;;;;;;4938248;29;20060;-85
2021/05/15 08:21:33;;;;;;;1.50;0.60;;;15.00;83.70;;;;;;4938419;29;20091;-85
2021/05/15 08:24:01;;;;;;;1.42;0.60;;;15.10;83.30;;;;;;4938135;29;20132;-86
2021/05/15 08:26:28;;;;;;;2.13;0.60;;;15.10;83.00;;;;;;4938033;29;20079;-85
2021/05/15 08:28:55;;;;;;;2.00;0.60;;;15.10;82.80;;;;;;4937799;29;20047;-85
2021/05/15 08:31:23;;;;;;;1.67;0.80;;;15.00;82.90;;;;;;4937884;29;20056;-86
2021/05/15 08:33:50;;;;;;;1.60;0.60;;;15.00;83.50;;;;;;4937256;29;20055;-85
2021/05/15 08:36:17;;;;;;;1.50;0.60;;;15.10;83.90;;;;;;4968326;28;20052;-85
2021/05/15 08:38:44;;;;;;;1.17;0.52;;;15.10;83.80;;;;;;4937732;29;20055;-86
2021/05/15 08:41:11;;;;;;;1.73;0.60;;;15.10;84.10;;;;;;4937766;29;20442;-85
2021/05/15 08:43:42;;;;;;;2.78;0.80;;;15.10;85.40;;;;;;4935641;29;20059;-85
2021/05/15 08:46:13;;;;;;;1.58;0.60;;;15.20;85.00;;;;;;4937655;29;20110;-85
2021/05/15 08:48:40;;;;;;;2.00;0.63;;;15.20;85.10;;;;;;4937466;29;20136;-84
2021/05/15 08:51:09;;;;;;;1.52;0.52;;;15.20;85.30;;;;;;4937440;29;20077;-85
2021/05/15 08:53:39;;;;;;;1.23;0.47;;;15.30;84.20;;;;;;4937617;29;20060;-85
2021/05/15 08:56:08;;;;;;;1.55;0.50;;;15.40;82.70;;;;;;4936843;29;20083;-85
2021/05/15 08:58:37;;;;;;;0.73;0.38;;;15.50;82.00;;;;;;4937544;29;20135;-85
2021/05/15 09:01:05;;;;;;;1.42;0.50;;;15.60;81.60;;;;;;4937672;29;20058;-85
2021/05/15 09:03:33;;;;;;;1.02;0.40;;;15.70;80.10;;;;;;4937373;29;20130;-85
2021/05/15 09:06:00;;;;;;;1.85;0.52;;;15.80;79.10;;;;;;4937159;29;20078;-85
2021/05/15 09:08:27;;;;;;;1.23;0.45;;;15.90;75.40;;;;;;4937079;29;20138;-85
2021/05/15 09:10:54;;;;;;;2.08;0.50;;;15.80;73.70;;;;;;4937234;29;20048;-85
2021/05/15 09:13:24;;;;;;;1.73;0.50;;;15.90;73.60;;;;;;4937366;29;20107;-85
2021/05/15 09:15:52;;;;;;;1.95;0.47;;;16.00;74.50;;;;;;4937244;29;20059;-85
2021/05/15 09:18:22;;;;;;;2.63;0.70;;;16.00;74.40;;;;;;4936868;29;20060;-85
2021/05/15 09:20:51;;;;;;;2.13;0.40;;;15.90;73.20;;;;;;4937213;29;20059;-84
2021/05/15 09:23:22;;;;;;;1.75;0.50;;;16.00;73.50;;;;;;4937098;29;20058;-85
2021/05/15 09:25:59;;;;;;;2.00;0.60;;;16.00;72.20;;;;;;4936709;29;20047;-86
2021/05/15 09:28:39;;;;;;;0.82;0.45;;;16.00;72.40;;;;;;4937128;29;20051;-86
2021/05/15 09:31:18;;;;;;;1.52;0.50;;;16.00;70.90;;;;;;4936963;29;20044;-85
2021/05/15 09:33:48;;;;;;;2.42;0.60;;;16.00;69.80;;;;;;4936473;29;20052;-85
2021/05/15 09:36:21;;;;;;;1.73;0.60;;;16.00;68.80;;;;;;4937158;29;20130;-85
2021/05/15 09:38:59;;;;;;;2.67;0.80;;;16.00;70.90;;;;;;4936639;29;20394;-84
2021/05/15 09:41:32;;;;;;;2.75;0.70;;;16.10;70.50;;;;;;4936480;29;20052;-83
2021/05/15 09:44:00;;;;;;;2.78;0.60;;;16.10;70.00;;;;;;4936639;29;20142;-84
2021/05/15 09:46:30;;;;;;;1.80;0.75;;;16.10;70.00;;;;;;4936661;29;20067;-85
2021/05/15 09:48:57;;;;;;;1.58;0.60;;;16.10;71.10;;;;;;4936565;29;20436;-85
2021/05/15 09:51:24;;;;;;;2.65;0.70;;;16.10;72.10;;;;;;4936275;29;20490;-84
2021/05/15 09:53:51;;;;;;;2.08;0.65;;;16.20;70.70;;;;;;4936133;29;20055;-84
2021/05/15 09:56:29;;;;;;;2.90;0.70;;;16.20;69.90;;;;;;4936006;29;20462;-85
2021/05/15 09:58:56;;;;;;;1.88;0.70;;;16.20;69.90;;;;;;4936666;29;20094;-86
2021/05/15 10:01:24;;;;;;;1.05;0.47;;;16.30;70.50;;;;;;4936224;29;20557;-85
2021/05/15 10:04:02;;;;;;;2.42;0.80;;;16.30;71.30;;;;;;4936680;29;20163;-85
2021/05/15 10:06:29;;;;;;;5.95;1.20;;;16.50;70.80;;;;;;4936052;29;20063;-83
2021/05/15 10:08:58;;;;;;;1.92;0.70;;;16.50;69.90;;;;;;4936487;29;20139;-85
2021/05/15 10:11:25;;;;;;;2.72;0.75;;;16.50;69.00;;;;;;4935607;29;20044;-87
2021/05/15 10:13:52;;;;;;;1.90;0.60;;;16.50;68.30;;;;;;4936791;29;20075;-88
2021/05/15 10:16:19;;;;;;;2.20;0.60;;;16.60;68.20;;;;;;4936419;29;20075;-83
2021/05/15 10:18:47;;;;;;;1.45;0.60;;;16.70;69.80;;;;;;4935979;29;20087;-85
2021/05/15 10:21:13;;;;;;;2.50;0.60;;;16.80;70.30;;;;;;4935612;29;20139;-84
2021/05/15 10:23:43;;;;;;;1.80;0.70;;;17.10;68.30;;;;;;4935342;29;20146;-83
2021/05/15 10:26:18;;;;;;;2.95;0.80;;;17.10;67.50;;;;;;4935181;29;20113;-83
2021/05/15 10:28:46;;;;;;;2.17;0.60;;;17.20;66.60;;;;;;4935538;29;20110;-81
2021/05/15 10:31:15;;;;;;;1.13;0.60;;;17.30;65.90;;;;;;4935301;29;20044;-81
2021/05/15 10:33:47;;;;;;;3.70;0.73;;;17.30;64.60;;;;;;4935570;29;20079;-82
2021/05/15 10:36:23;;;;;;;1.73;0.55;;;17.30;66.50;;;;;;4935376;29;20406;-82
2021/05/15 10:38:51;;;;;;;2.22;0.77;;;17.20;66.90;;;;;;4920551;29;20566;-83
2021/05/15 10:41:20;;;;;;;2.70;0.80;;;17.10;68.30;;;;;;4919362;29;20052;-81
2021/05/15 10:43:49;;;;;;;1.45;0.68;;;17.00;67.70;;;;;;4920699;28;20131;-81
2021/05/15 10:46:25;;;;;;;2.80;0.80;;;16.90;67.20;;;;;;4934118;29;20044;-81
2021/05/15 10:49:09;;;;;;;3.45;1.00;;;16.80;68.10;;;;;;4939230;29;20052;-81
2021/05/15 10:51:44;;;;;;;3.13;1.30;;;16.70;65.70;;;;;;4939086;29;20406;-81
2021/05/15 10:54:14;;;;;;;2.10;0.70;;;16.70;65.90;;;;;;4939364;29;20433;-81
2021/05/15 10:56:41;;;;;;;1.92;0.70;;;16.80;66.80;;;;;;4938005;29;20078;-82
2021/05/15 10:59:10;;;;;;;3.47;0.70;;;16.90;66.60;;;;;;4939121;29;20397;-81
2021/05/15 11:01:49;;;;;;;2.85;0.82;;;17.00;66.50;;;;;;4939139;29;20043;-81
2021/05/15 11:04:47;;;;;;;4.88;1.70;;;17.00;65.50;;;;;;4939014;29;20442;-80
2021/05/15 11:07:15;;;;;;;2.63;0.80;;;17.10;64.90;;;;;;4938978;29;20083;-81
2021/05/15 11:09:53;;;;;;;2.58;0.70;;;17.10;63.60;;;;;;4938530;29;20131;-83
2021/05/15 11:12:20;;;;;;;3.65;1.02;;;17.00;63.20;;;;;;4938299;29;20070;-81
2021/05/15 11:14:48;;;;;;;2.25;0.77;;;16.80;63.30;;;;;;4939022;29;20473;-81
2021/05/15 11:17:24;;;;;;;1.63;0.60;;;16.70;64.40;;;;;;4938920;29;20048;-81
2021/05/15 11:19:55;;;;;;;2.30;0.70;;;16.60;66.00;;;;;;4939083;29;20058;-82
2021/05/15 11:22:37;;;;;;;3.97;0.80;;;16.50;67.10;;;;;;4938607;29;20063;-81
2021/05/15 11:25:17;;;;;;;3.42;0.80;;;16.20;66.40;;;;;;4947325;29;20097;-82
2021/05/15 11:27:46;;;;;;;2.92;1.05;;;16.00;68.60;;;;;;4958096;29;20059;-82
2021/05/15 11:30:17;;;;;;;3.25;0.60;;;15.60;73.00;;;;;;4957747;28;20059;-82
2021/05/15 11:32:56;;;;;;;2.35;0.60;;;15.20;78.30;;;;;;4957935;29;20087;-82
2021/05/15 11:35:23;;;;;;;2.22;0.63;;;14.90;83.30;;;;;;4957852;28;20560;-81
2021/05/15 11:38:00;;;;;;;2.72;0.60;;;14.70;84.70;;;;;;4957899;28;20142;-82
2021/05/15 11:40:27;;;;;;;2.38;0.57;;;14.50;85.90;;;;;;4956519;29;20489;-82
2021/05/15 11:42:56;;;;;;;2.70;0.60;;;14.50;88.30;;;;;;4957754;29;20087;-82
2021/05/15 11:45:25;;;;;;;1.83;0.88;;;14.60;90.10;;;;;;4938283;29;20156;-82
2021/05/15 11:48:07;;;;;;;2.33;0.60;;;14.90;89.70;;;;;;4937402;29;20061;-82
2021/05/15 11:50:34;;;;;;;1.33;0.50;;;15.10;88.30;;;;;;4938123;29;20509;-82
2021/05/15 11:53:03;;;;;;;1.95;0.70;;;15.20;87.70;;;;;;4937802;29;20083;-82
2021/05/15 11:55:31;;;;;;;5.13;2.20;;;15.30;88.30;;;;;;4938224;29;20071;-82
2021/05/15 11:58:00;;;;;;;4.28;1.10;;;15.30;83.20;;;;;;4938057;29;20083;-82
2021/05/15 12:00:29;;;;;;;3.45;1.23;;;15.20;83.30;;;;;;4943931;29;20056;-80
2021/05/15 12:02:56;;;;;;;2.28;0.80;;;15.20;83.60;;;;;;4933768;29;20139;-80
2021/05/15 12:05:23;;;;;;;1.88;0.68;;;15.30;84.70;;;;;;4924232;29;20567;-81
2021/05/15 12:07:51;;;;;;;2.33;0.80;;;15.40;84.50;;;;;;4945006;29;20138;-80
2021/05/15 12:10:21;;;;;;;2.97;0.80;;;15.40;83.20;;;;;;4948007;29;20202;-80
2021/05/15 12:12:57;;;;;;;3.15;0.70;;;15.40;83.00;;;;;;4952684;29;20488;-80
2021/05/15 12:15:24;;;;;;;1.92;0.60;;;15.40;83.30;;;;;;4944287;29;20555;-80
2021/05/15 12:17:51;;;;;;;1.40;0.60;;;15.50;83.50;;;;;;4944471;29;20057;-80
2021/05/15 12:20:33;;;;;;;1.70;0.60;;;15.60;82.40;;;;;;4948622;29;20078;-80
2021/05/15 12:23:12;;;;;;;1.67;0.52;;;15.60;80.60;;;;;;4947873;29;20708;-80
2021/05/15 12:25:42;;;;;;;0.98;0.40;;;15.80;81.20;;;;;;4971841;28;20417;-80
2021/05/15 12:28:20;;;;;;;1.70;0.60;;;15.90;81.40;;;;;;4971297;28;20467;-81
2021/05/15 12:30:47;;;;;;;1.75;0.60;;;16.10;82.10;;;;;;4972307;28;20054;-81
2021/05/15 12:33:18;;;;;;;2.65;0.52;;;16.30;81.80;;;;;;4972881;28;20070;-81
2021/05/15 12:36:00;;;;;;;2.17;0.60;;;16.50;82.00;;;;;;4972288;28;20054;-81
2021/05/15 12:38:27;;;;;;;1.45;0.55;;;16.50;81.30;;;;;;4968165;28;20535;-81
2021/05/15 12:41:07;;;;;;;1.75;0.68;;;16.70;79.80;;;;;;4962333;28;20622;-81
2021/05/15 12:43:35;;;;;;;2.90;0.60;;;16.90;73.30;;;;;;4971489;28;20130;-81
2021/05/15 12:46:09;;;;;;;2.35;0.60;;;17.00;74.40;;;;;;4978014;28;20062;-81
2021/05/15 12:48:38;;;;;;;2.72;0.60;;;17.20;72.80;;;;;;4972494;28;20476;-81
2021/05/15 12:51:07;;;;;;;2.13;0.55;;;17.30;72.40;;;;;;4976310;28;20054;-81
2021/05/15 12:53:34;;;;;;;2.33;0.60;;;17.50;71.40;;;;;;4986534;28;20085;-81
2021/05/15 12:56:03;;;;;;;2.33;0.70;;;17.70;69.50;;;;;;4963152;28;20548;-81
2021/05/15 12:58:30;;;;;;;0.95;0.50;;;17.80;68.60;;;;;;4971935;28;20086;-81
2021/05/15 13:01:02;;;;;;;2.58;0.70;;;18.00;67.90;;;;;;4970906;28;20082;-81
2021/05/15 13:03:30;;;;;;;2.55;0.88;;;18.20;62.60;;;;;;4958974;28;20046;-81
2021/05/15 13:05:57;;;;;;;2.53;0.68;;;18.30;62.00;;;;;;4971554;28;20050;-81
2021/05/15 13:08:33;;;;;;;1.50;0.52;;;18.40;61.20;;;;;;4971219;28;20520;-81
2021/05/15 13:11:15;;;;;;;2.85;0.60;;;18.50;61.70;;;;;;4971483;28;20059;-81
2021/05/15 13:13:44;;;;;;;2.05;0.63;;;18.70;59.50;;;;;;4969825;28;20126;-81
2021/05/15 13:16:14;;;;;;;2.28;0.60;;;18.70;59.50;;;;;;4971843;28;20101;-81
2021/05/15 13:18:42;;;;;;;3.00;0.70;;;18.70;61.00;;;;;;4970154;28;20489;-80
2021/05/15 13:21:10;;;;;;;2.28;0.60;;;18.70;60.10;;;;;;4982550;28;20466;-81
2021/05/15 13:23:36;;;;;;;2.13;0.60;;;18.80;60.20;;;;;;4971232;28;20395;-81
2021/05/15 13:26:04;;;;;;;2.45;0.70;;;18.70;59.90;;;;;;4973718;28;20165;-81
2021/05/15 13:28:32;;;;;;;1.35;0.52;;;18.80;59.70;;;;;;4969926;28;20050;-81
2021/05/15 13:30:59;;;;;;;2.80;0.93;;;18.90;60.00;;;;;;4952842;28;20121;-81
2021/05/15 13:33:26;;;;;;;1.60;0.60;;;18.80;59.30;;;;;;4963845;28;20217;-81
2021/05/15 13:35:52;;;;;;;2.45;0.70;;;18.80;59.10;;;;;;4971594;28;20511;-81
2021/05/15 13:38:19;;;;;;;2.45;0.80;;;18.80;59.60;;;;;;4979079;28;20170;-81
2021/05/15 13:40:45;;;;;;;3.35;0.70;;;18.70;59.20;;;;;;4976909;28;20145;-81
2021/05/15 13:43:12;;;;;;;3.70;1.42;;;18.70;60.50;;;;;;4972711;28;20122;-80
2021/05/15 13:45:40;;;;;;;6.45;2.67;;;18.70;62.70;;;;;;4975416;28;20047;-80
2021/05/15 13:48:08;;;;;;;6.93;3.10;;;18.70;64.10;;;;;;4972392;28;20050;-80
2021/05/15 13:50:35;;;;;;;4.85;2.38;;;18.90;62.80;;;;;;4975347;28;20082;-81
2021/05/15 13:53:01;;;;;;;3.35;1.30;;;19.10;62.20;;;;;;4984421;28;20188;-91
2021/05/15 13:55:28;;;;;;;2.20;0.75;;;19.30;63.50;;;;;;4977107;28;20125;-90
2021/05/15 13:57:54;;;;;;;1.60;0.55;;;19.40;60.20;;;;;;4989842;28;20086;-90
2021/05/15 14:00:22;;;;;;;1.98;0.73;;;19.50;60.50;;;;;;4978976;28;20146;-90
2021/05/15 14:02:49;;;;;;;2.22;0.80;;;19.60;58.30;;;;;;4972030;28;20050;-91
2021/05/15 14:05:18;;;;;;;3.13;0.80;;;19.70;57.50;;;;;;4971946;28;20082;-89
2021/05/15 14:07:44;;;;;;;2.60;0.68;;;19.70;57.90;;;;;;4971871;28;20054;-90
2021/05/15 14:10:13;;;;;;;2.33;0.70;;;19.70;59.20;;;;;;4973296;28;20097;-85
2021/05/15 14:12:39;;;;;;;3.95;0.85;;;19.70;57.90;;;;;;4986148;28;20498;-89
2021/05/15 14:15:08;;;;;;;1.60;0.60;;;19.70;58.60;;;;;;4972109;28;20404;-89
2021/05/15 14:17:35;;;;;;;1.95;0.60;;;19.90;58.20;;;;;;4971962;28;20051;-88
2021/05/15 14:20:05;;;;;;;2.50;0.70;;;20.00;57.40;;;;;;4974339;28;20137;-89
2021/05/15 14:22:32;;;;;;;4.03;1.38;;;20.00;57.40;;;;;;4977092;28;20540;-88
2021/05/15 14:24:58;;;;;;;3.60;0.90;;;20.10;56.80;;;;;;4975903;28;20077;-83
2021/05/15 14:27:26;;;;;;;3.05;1.20;;;20.00;58.10;;;;;;4971334;28;20122;-89
2021/05/15 14:29:53;;;;;;;2.45;0.70;;;20.00;59.00;;;;;;4971914;28;20051;-84
2021/05/15 14:32:20;;;;;;;3.35;0.68;;;20.00;58.40;;;;;;4979503;28;20054;-81
2021/05/15 14:34:47;;;;;;;1.73;0.60;;;19.90;56.80;;;;;;4970787;28;20050;-86
2021/05/15 14:37:15;;;;;;;1.60;0.70;;;19.70;54.80;;;;;;4970935;28;20090;-86
2021/05/15 14:39:41;;;;;;;2.13;0.60;;;19.50;54.70;;;;;;4970673;28;20137;-83
2021/05/15 14:42:08;;;;;;;2.75;0.65;;;19.30;54.50;;;;;;4970651;28;20082;-81
2021/05/15 14:44:35;;;;;;;1.25;0.50;;;19.10;55.50;;;;;;4966024;28;20079;-82
2021/05/15 14:47:02;;;;;;;1.67;0.50;;;18.90;53.20;;;;;;4973504;28;20046;-82
2021/05/15 14:49:28;;;;;;;3.95;0.73;;;18.60;54.20;;;;;;4959827;28;20129;-82
2021/05/15 14:51:55;;;;;;;2.42;0.70;;;18.40;54.30;;;;;;4972430;28;20130;-82
2021/05/15 14:54:23;;;;;;;2.25;0.80;;;18.20;55.00;;;;;;4972928;28;20074;-84
2021/05/15 14:56:50;;;;;;;1.30;0.60;;;18.00;55.80;;;;;;4969837;28;20050;-81
2021/05/15 14:59:17;;;;;;;1.42;0.65;;;17.80;56.10;;;;;;4969869;28;20130;-78
2021/05/15 15:01:44;;;;;;;2.42;0.80;;;17.70;57.00;;;;;;4969631;28;20055;-82
2021/05/15 15:04:11;;;;;;;1.70;0.60;;;17.60;57.60;;;;;;4969396;28;20042;-79
2021/05/15 15:06:37;;;;;;;2.42;0.60;;;17.50;57.40;;;;;;4950263;29;20509;-80
2021/05/15 15:09:05;;;;;;;1.65;0.70;;;17.40;57.70;;;;;;4950262;28;20146;-78
2021/05/15 15:11:33;;;;;;;2.35;0.68;;;17.30;58.10;;;;;;4950012;29;20047;-77
2021/05/15 15:14:01;;;;;;;1.92;0.70;;;17.10;58.90;;;;;;4950062;29;20075;-77
2021/05/15 15:16:28;;;;;;;3.78;1.30;;;17.00;59.70;;;;;;4950300;28;20082;-80
2021/05/15 15:18:55;;;;;;;4.97;2.50;;;16.90;59.50;;;;;;4950338;29;20144;-78
2021/05/15 15:21:22;;;;;;;3.35;0.80;;;16.80;59.90;;;;;;4950438;28;20052;-77
2021/05/15 15:23:48;;;;;;;1.77;0.63;;;16.70;60.00;;;;;;4952410;28;20409;-80
2021/05/15 15:26:15;;;;;;;2.05;0.60;;;16.70;60.40;;;;;;4953901;29;20039;-79
2021/05/15 15:28:42;;;;;;;2.30;0.70;;;16.60;60.60;;;;;;4953988;29;20059;-80
2021/05/15 15:31:09;;;;;;;2.13;0.70;;;16.50;60.50;;;;;;4955508;28;20082;-80
2021/05/15 15:33:36;;;;;;;1.90;0.70;;;16.40;61.00;;;;;;4953260;28;20412;-82
2021/05/15 15:36:03;;;;;;;2.10;0.65;;;16.30;61.30;;;;;;4953906;28;20170;-78
2021/05/15 15:38:30;;;;;;;1.67;0.70;;;16.30;62.00;;;;;;4954000;29;20166;-79
2021/05/15 15:40:57;;;;;;;1.85;0.60;;;16.20;61.90;;;;;;4953836;28;20167;-79
2021/05/15 15:43:24;;;;;;;1.20;0.50;;;16.20;61.80;;;;;;4953437;28;20059;-80
2021/05/15 15:45:51;;;;;;;1.92;0.52;;;16.10;62.90;;;;;;4953633;28;20110;-78
2021/05/15 15:48:24;;;;;;;2.40;0.57;;;15.90;64.30;;;;;;4953541;28;20110;-80
2021/05/15 15:50:52;;;;;;;1.77;0.70;;;15.80;66.10;;;;;;4953519;29;20082;-79
2021/05/15 15:53:21;;;;;;;1.40;0.65;;;15.60;67.40;;;;;;4953756;29;20125;-79
2021/05/15 15:55:48;;;;;;;2.30;0.80;;;15.40;68.70;;;;;;4953524;28;20051;-80
2021/05/15 15:58:19;;;;;;;4.93;1.83;;;15.30;69.40;;;;;;4953217;28;20082;-79
2021/05/15 16:00:45;;;;;;;2.00;0.70;;;15.20;71.50;;;;;;4953084;28;20055;-81
2021/05/15 16:03:13;;;;;;;2.30;0.80;;;15.10;71.90;;;;;;4953120;29;20075;-80
2021/05/15 16:05:40;;;;;;;2.65;0.70;;;15.00;72.90;;;;;;4953171;29;20095;-79
2021/05/15 16:08:07;;;;;;;2.38;0.65;;;15.00;75.00;;;;;;4953333;29;20078;-81
2021/05/15 16:10:35;;;;;;;1.98;0.77;;;14.80;77.00;;;;;;4953476;28;20102;-81
2021/05/15 16:13:03;;;;;;;2.22;0.80;;;14.80;78.10;;;;;;4953391;29;20048;-81
2021/05/15 16:15:30;;;;;;;3.72;0.90;;;14.70;79.80;;;;;;4952281;29;20415;-81
2021/05/15 16:17:57;;;;;;;1.90;0.80;;;14.70;81.00;;;;;;4953446;28;20118;-81
2021/05/15 16:20:25;;;;;;;1.80;0.70;;;14.60;82.70;;;;;;4953294;29;20086;-81
2021/05/15 16:22:52;;;;;;;2.20;0.70;;;14.50;84.00;;;;;;4952603;28;20126;-81
2021/05/15 16:25:20;;;;;;;2.38;0.70;;;14.50;85.30;;;;;;4952878;29;20130;-82
2021/05/15 16:27:47;;;;;;;2.08;0.80;;;14.50;85.90;;;;;;4952828;29;20133;-80
2021/05/15 16:30:15;;;;;;;1.77;0.60;;;14.50;87.00;;;;;;4957887;28;20051;-85
2021/05/15 16:32:41;;;;;;;2.95;0.75;;;14.50;87.40;;;;;;4957853;28;20142;-87
2021/05/15 16:35:10;;;;;;;2.00;0.70;;;14.50;88.00;;;;;;4954487;28;20047;-86
2021/05/15 16:37:39;;;;;;;1.33;0.63;;;14.60;88.20;;;;;;4957232;29;20050;-87
2021/05/15 16:40:09;;;;;;;1.33;0.63;;;14.60;87.80;;;;;;4956902;28;20055;-86
2021/05/15 16:42:35;;;;;;;2.67;0.73;;;14.60;87.80;;;;;;4956905;28;20075;-87
2021/05/15 16:45:03;;;;;;;1.52;0.70;;;14.60;87.50;;;;;;4958867;28;20456;-87
2021/05/15 16:47:29;;;;;;;2.85;0.82;;;14.60;87.40;;;;;;4974098;28;20536;-87
2021/05/15 16:49:56;;;;;;;1.25;0.50;;;14.70;87.10;;;;;;4954910;28;20102;-87
2021/05/15 16:52:23;;;;;;;1.08;0.40;;;14.60;86.60;;;;;;4987565;28;20152;-87
2021/05/15 16:54:51;;;;;;;1.30;0.50;;;14.70;86.00;;;;;;4957343;28;20066;-86
2021/05/15 16:57:19;;;;;;;1.83;0.75;;;14.60;85.90;;;;;;4973536;28;20106;-86
2021/05/15 16:59:45;;;;;;;2.17;1.10;;;14.60;86.20;;;;;;4957358;28;20130;-90
2021/05/15 17:02:13;;;;;;;1.95;0.80;;;14.60;85.90;;;;;;4967986;28;20481;-89
2021/05/15 17:04:39;;;;;;;1.77;0.55;;;14.60;85.80;;;;;;4964387;28;20078;-88
2021/05/15 17:07:06;;;;;;;1.75;0.50;;;14.60;85.80;;;;;;4978663;28;20580;-90
2021/05/15 17:09:33;;;;;;;0.93;0.35;;;14.60;86.00;;;;;;4989119;28;20046;-91
2021/05/15 17:12:00;;;;;;;1.70;0.50;;;14.60;85.90;;;;;;4978365;28;20129;-87
2021/05/15 17:14:27;;;;;;;0.60;0.30;;;14.60;85.90;;;;;;4990344;28;20126;-87
2021/05/15 17:16:54;;;;;;;0.47;0.30;;;14.50;85.70;;;;;;4983137;28;20563;-87
2021/05/15 17:19:21;;;;;;;0.70;0.30;;;14.50;86.00;;;;;;4980731;28;20074;-88
2021/05/15 17:21:50;;;;;;;1.55;0.57;;;14.40;86.10;;;;;;4980631;28;20146;-88
2021/05/15 17:24:18;;;;;;;2.72;0.70;;;14.30;86.60;;;;;;4976215;28;20054;-87
2021/05/15 17:26:45;;;;;;;1.55;0.80;;;14.30;86.90;;;;;;4975903;28;20082;-88
2021/05/15 17:29:12;;;;;;;3.63;2.20;;;14.20;87.30;;;;;;4985693;28;20137;-88
2021/05/15 17:31:40;;;;;;;3.33;1.30;;;14.20;87.80;;;;;;4981037;28;20138;-90
2021/05/15 17:34:06;;;;;;;2.97;1.60;;;14.20;88.20;;;;;;4961137;28;20090;-88
2021/05/15 17:36:33;;;;;;;2.10;0.95;;;14.20;88.10;;;;;;4981407;28;20046;-87
2021/05/15 17:39:03;;;;;;;2.63;1.00;;;14.20;87.70;;;;;;4989204;28;20533;-84
2021/05/15 17:41:29;;;;;;;2.47;1.00;;;14.10;88.20;;;;;;4954847;28;20043;-84
2021/05/15 17:43:56;;;;;;;6.57;3.70;;;14.10;87.70;;;;;;4966230;28;20745;-84
2021/05/15 17:46:24;;;;;;;3.83;2.25;;;14.00;87.60;;;;;;4974755;28;20137;-83
2021/05/15 17:48:50;;;;;;;2.38;0.82;;;13.90;87.70;;;;;;4974502;28;20137;-83